Pagrindinis puslapis
METAR-TAF:

METAR-TAF

Oro uostai :

San Angelo Regional Airport (Mathis Field)

San Angelo, Teksasas, Jungtinės Amerikos Valstijos

platuma: 31-21-05N, ilguma: 100-29-38W, Aukštis: 584 m

Dabartinis oras

Ataskaita buvo paskelbta 33 minutes, ne 06:51 UTC
Ramus vėjas
Temperatūra 3°C
Drėgmė 44%
Slėgis 1026 hPa
Matomumas: 16.1 km
Giedras dangus

METAR: KSJT 280651Z AUTO 00000KT 10SM CLR 03/M08 A3029 RMK AO2 SLP259 T00331083 $

Laikas: 01:24 (07:24 UTC)

Prognozė

Ataskaita buvo paskelbta 2 valandos ir 4 minutes, ne 05:20 UTC
Prognozė galioja nuo 28 metu 06 UTC su 29 metu 06 UTC
Vėjas 4 kt nuo kintamojo kryptimis
Matomumas: 10 km
Giedras dangus
Nuo 28 metu 1600 UTC
Vėjas 7 kt iš Pietų/Pietvakarių
Matomumas: 10 km
Mažai debesys ne aukštis 25000 ft

TAF: KSJT 280520Z 2806/2906 VRB04KT P6SM SKC FM281600 20007KT P6SM FEW250

Orai ataskaitas ir orų prognozės (METAR, TAF).

turimą stotys yra geltonos ir raudonos taškus žemėlapyje.

Perkelti pele per norėdami pamatyti stoties vardą.

Tada spustelėkite, norėdami matyti oro stebėjimo ir prognozės.

Norėdami pakeisti žemėlapį: spustelėkite ant žalios mygtukų su juodo kryžiaus žemyn,; žalią mygtuką su brūkšneliu, jei norite nutolinti; arba žalių rodyklių gretimoms žemėlapius.


METAR-TAF: